createdAt,value
2023-05-25T00:01:00.607Z,17.30
2023-05-25T00:01:37.026Z,17.28
2023-05-25T00:02:26.190Z,17.27
2023-05-25T00:03:16.321Z,17.27
2023-05-25T00:04:06.361Z,17.28
2023-05-25T00:04:56.208Z,17.29
2023-05-25T00:05:46.272Z,17.29
2023-05-25T00:06:36.296Z,17.29
2023-05-25T00:07:26.419Z,17.31
2023-05-25T00:08:16.403Z,17.30
2023-05-25T00:09:06.570Z,17.28
2023-05-25T00:09:56.517Z,17.28
2023-05-25T00:10:46.619Z,17.27
2023-05-25T00:11:36.637Z,17.27
2023-05-25T00:12:26.797Z,17.27
2023-05-25T00:13:16.746Z,17.27
2023-05-25T00:14:06.914Z,17.27
2023-05-25T00:14:56.854Z,17.28
2023-05-25T00:15:46.964Z,17.28
2023-05-25T00:16:37.078Z,17.27
2023-05-25T00:17:27.159Z,17.25
2023-05-25T00:18:17.091Z,17.25
2023-05-25T00:19:07.261Z,17.25
2023-05-25T00:19:57.225Z,17.25
2023-05-25T00:20:47.568Z,17.24
2023-05-25T00:21:37.341Z,17.22
2023-05-25T00:22:27.448Z,17.22
2023-05-25T00:23:17.475Z,17.21
2023-05-25T00:24:07.637Z,17.22
2023-05-25T00:24:57.604Z,17.21
2023-05-25T00:25:47.664Z,17.21
2023-05-25T00:26:37.688Z,17.21
2023-05-25T00:27:27.792Z,17.20
2023-05-25T00:28:17.814Z,17.20
2023-05-25T00:29:07.969Z,17.21
2023-05-25T00:29:57.913Z,17.21
2023-05-25T00:30:48.031Z,17.21
2023-05-25T00:31:37.980Z,17.21
2023-05-25T00:32:28.210Z,17.21
2023-05-25T00:33:18.097Z,17.21
2023-05-25T00:34:08.189Z,17.20
2023-05-25T00:34:58.220Z,17.20
2023-05-25T00:35:48.332Z,17.20
2023-05-25T00:36:38.326Z,17.22
2023-05-25T00:37:28.485Z,17.22
2023-05-25T00:38:18.415Z,17.21
2023-05-25T00:39:08.525Z,17.21
2023-05-25T00:39:58.555Z,17.22
2023-05-25T00:40:48.712Z,17.20
2023-05-25T00:41:38.654Z,17.20
2023-05-25T00:42:28.833Z,17.19
2023-05-25T00:43:18.768Z,17.19
2023-05-25T00:44:08.896Z,17.18
2023-05-25T00:44:58.908Z,17.18
2023-05-25T00:45:49.020Z,17.19
2023-05-25T00:46:39.088Z,17.19
2023-05-25T00:47:29.093Z,17.18
2023-05-25T00:48:19.096Z,17.19
2023-05-25T00:49:09.215Z,17.16
2023-05-25T00:49:59.218Z,17.18
2023-05-25T00:50:49.269Z,17.18
2023-05-25T00:51:39.282Z,17.15
2023-05-25T00:52:29.407Z,17.16
2023-05-25T00:53:19.390Z,17.15
2023-05-25T00:54:09.558Z,17.15
2023-05-25T00:54:59.519Z,17.13
2023-05-25T00:55:49.607Z,17.15
2023-05-25T00:56:39.585Z,17.16
2023-05-25T00:57:29.753Z,17.16
2023-05-25T00:58:19.690Z,17.16
2023-05-25T00:59:09.813Z,17.15
2023-05-25T00:59:59.877Z,17.12
2023-05-25T01:00:49.947Z,17.11
2023-05-25T01:01:40.095Z,17.12
2023-05-25T01:02:30.139Z,17.13
2023-05-25T01:03:20.189Z,17.14
2023-05-25T01:04:11.230Z,17.14
2023-05-25T01:05:00.160Z,17.13
2023-05-25T01:05:50.292Z,17.14
2023-05-25T01:06:40.276Z,17.15
2023-05-25T01:07:31.376Z,17.14
2023-05-25T01:08:20.389Z,17.15
2023-05-25T01:09:10.486Z,17.14
2023-05-25T01:10:01.341Z,17.13
2023-05-25T01:10:50.641Z,17.12
2023-05-25T01:11:41.330Z,17.11
2023-05-25T01:12:30.706Z,17.12
2023-05-25T01:13:20.714Z,17.11
2023-05-25T01:14:10.829Z,17.12
2023-05-25T01:15:00.868Z,17.13
2023-05-25T01:15:50.998Z,17.13
2023-05-25T01:16:41.017Z,17.13
2023-05-25T01:17:31.150Z,17.13
2023-05-25T01:18:21.114Z,17.12
2023-05-25T01:19:11.275Z,17.10
2023-05-25T01:20:10.450Z,17.09
2023-05-25T01:20:52.376Z,17.05
2023-05-25T01:21:41.354Z,17.08
2023-05-25T01:22:31.465Z,17.08
2023-05-25T01:23:21.478Z,17.09
2023-05-25T01:24:11.622Z,17.09
2023-05-25T01:25:01.595Z,17.09
2023-05-25T01:25:51.691Z,17.08
2023-05-25T01:26:41.734Z,17.09
2023-05-25T01:27:31.812Z,17.09
2023-05-25T01:28:21.829Z,17.10
2023-05-25T01:29:11.963Z,17.09
2023-05-25T01:30:01.968Z,17.08
2023-05-25T01:30:52.109Z,17.09
2023-05-25T01:31:42.106Z,17.09
2023-05-25T01:32:32.160Z,17.09
2023-05-25T01:33:22.125Z,17.09
2023-05-25T01:34:12.218Z,17.10
2023-05-25T01:35:02.242Z,17.10
2023-05-25T01:35:52.361Z,17.10
2023-05-25T01:36:42.332Z,17.09
2023-05-25T01:37:32.492Z,17.08
2023-05-25T01:38:22.423Z,17.09
2023-05-25T01:39:12.543Z,17.10
2023-05-25T01:40:02.533Z,17.10
2023-05-25T01:40:52.723Z,17.10
2023-05-25T01:41:42.621Z,17.09
2023-05-25T01:42:32.737Z,17.08
2023-05-25T01:43:22.727Z,17.09
2023-05-25T01:44:12.884Z,17.10
2023-05-25T01:45:02.833Z,17.10
2023-05-25T01:45:52.947Z,17.11
2023-05-25T01:46:42.951Z,17.10
2023-05-25T01:47:33.048Z,17.09
2023-05-25T01:48:23.038Z,17.09
2023-05-25T01:49:13.134Z,17.10
2023-05-25T01:50:03.172Z,17.09
2023-05-25T01:50:53.273Z,17.08
2023-05-25T01:51:43.310Z,17.08
2023-05-25T01:52:33.438Z,17.08
2023-05-25T01:53:23.394Z,17.08
2023-05-25T01:54:13.467Z,17.09
2023-05-25T01:55:03.539Z,17.09
2023-05-25T01:55:53.623Z,17.09
2023-05-25T01:56:43.671Z,17.09
2023-05-25T01:57:33.771Z,17.09
2023-05-25T01:58:23.793Z,17.09
2023-05-25T01:59:13.916Z,17.08
2023-05-25T02:00:03.952Z,17.09
2023-05-25T02:00:54.062Z,17.08
2023-05-25T02:01:44.072Z,17.08
2023-05-25T02:02:34.225Z,17.08
2023-05-25T02:03:24.210Z,17.08
2023-05-25T02:04:14.292Z,17.08
2023-05-25T02:05:04.323Z,17.07
2023-05-25T02:05:54.409Z,17.08
2023-05-25T02:06:44.434Z,17.08
2023-05-25T02:07:34.553Z,17.07
2023-05-25T02:08:24.530Z,17.07
2023-05-25T02:09:14.599Z,17.06
2023-05-25T02:10:04.632Z,17.06
2023-05-25T02:10:54.751Z,17.06
2023-05-25T02:11:44.727Z,17.06
2023-05-25T02:12:34.892Z,17.05
2023-05-25T02:13:24.837Z,17.06
2023-05-25T02:14:14.947Z,17.05
2023-05-25T02:15:05.018Z,17.05
2023-05-25T02:15:55.126Z,17.07
2023-05-25T02:16:45.088Z,17.07
2023-05-25T02:17:35.271Z,17.06
2023-05-25T02:18:25.226Z,17.05
2023-05-25T02:19:15.423Z,17.06
2023-05-25T02:20:05.366Z,17.06
2023-05-25T02:20:55.436Z,17.06
2023-05-25T02:21:45.412Z,17.06
2023-05-25T02:22:35.493Z,17.08
2023-05-25T02:23:25.507Z,17.07
2023-05-25T02:24:15.671Z,17.06
2023-05-25T02:25:05.633Z,17.06
2023-05-25T02:25:55.678Z,17.06
2023-05-25T02:26:45.734Z,17.05
2023-05-25T02:27:35.829Z,17.03
2023-05-25T02:28:25.804Z,17.04
2023-05-25T02:29:15.982Z,17.04
2023-05-25T02:30:05.926Z,17.03
2023-05-25T02:30:56.061Z,17.04
2023-05-25T02:31:46.131Z,17.03
2023-05-25T02:32:36.104Z,17.04
2023-05-25T02:33:26.096Z,17.04
2023-05-25T02:34:16.213Z,17.03
2023-05-25T02:35:06.326Z,17.04
2023-05-25T02:35:56.262Z,17.03
2023-05-25T02:36:46.287Z,17.03
2023-05-25T02:37:36.415Z,17.03
2023-05-25T02:38:26.392Z,17.03
2023-05-25T02:39:16.579Z,17.02
2023-05-25T02:40:06.518Z,17.02
2023-05-25T02:40:56.621Z,17.02
2023-05-25T02:41:46.595Z,17.02
2023-05-25T02:42:36.756Z,17.03
2023-05-25T02:43:26.729Z,17.02
2023-05-25T02:44:16.800Z,17.02
2023-05-25T02:45:06.836Z,17.03
2023-05-25T02:45:56.951Z,17.01
2023-05-25T02:46:47.004Z,17.03
2023-05-25T02:47:37.140Z,17.02
2023-05-25T02:48:27.081Z,17.03
2023-05-25T02:49:17.242Z,17.04
2023-05-25T02:50:07.199Z,17.03
2023-05-25T02:50:57.336Z,17.03
2023-05-25T02:51:47.284Z,17.02
2023-05-25T02:52:37.439Z,17.03
2023-05-25T02:53:27.407Z,17.03
2023-05-25T02:54:17.491Z,17.03
2023-05-25T02:55:07.562Z,17.04
2023-05-25T02:55:57.631Z,17.03
2023-05-25T02:56:47.672Z,17.04
2023-05-25T02:57:37.795Z,17.04
2023-05-25T02:58:27.801Z,17.03
2023-05-25T02:59:17.955Z,17.02
2023-05-25T03:00:07.918Z,17.03
2023-05-25T03:00:58.126Z,17.04
2023-05-25T03:01:48.011Z,17.03
2023-05-25T03:02:38.155Z,17.03
2023-05-25T03:03:28.178Z,17.03
2023-05-25T03:04:18.271Z,17.04
2023-05-25T03:05:08.266Z,17.04
2023-05-25T03:05:58.319Z,17.04
2023-05-25T03:06:48.422Z,17.03
2023-05-25T03:07:38.467Z,17.05
2023-05-25T03:08:28.458Z,17.05
2023-05-25T03:09:18.620Z,17.09
2023-05-25T03:10:08.572Z,17.09
2023-05-25T03:10:58.728Z,17.13
2023-05-25T03:11:48.666Z,17.13
2023-05-25T03:12:38.815Z,17.12
2023-05-25T03:13:28.793Z,17.10
2023-05-25T03:14:18.857Z,17.08
2023-05-25T03:15:08.926Z,17.08
2023-05-25T03:15:59.003Z,17.08
2023-05-25T03:16:49.916Z,17.07
2023-05-25T03:17:39.176Z,17.06
2023-05-25T03:18:29.164Z,17.07
2023-05-25T03:19:19.301Z,17.07
2023-05-25T03:20:09.298Z,17.05
2023-05-25T03:20:59.349Z,17.05
2023-05-25T03:21:49.411Z,17.05
2023-05-25T03:22:39.532Z,17.05
2023-05-25T03:23:29.518Z,17.05
2023-05-25T03:24:19.650Z,17.04
2023-05-25T03:25:09.634Z,17.04
2023-05-25T03:25:59.806Z,17.06
2023-05-25T03:26:49.764Z,17.05
2023-05-25T03:27:39.854Z,17.07
2023-05-25T03:28:29.901Z,17.09
2023-05-25T03:29:20.005Z,17.09
2023-05-25T03:30:10.027Z,17.10
2023-05-25T03:31:00.144Z,17.10
2023-05-25T03:31:50.171Z,17.13
2023-05-25T03:32:40.210Z,17.14
2023-05-25T03:33:30.216Z,17.16
2023-05-25T03:34:20.333Z,17.17
2023-05-25T03:35:10.370Z,17.18
2023-05-25T03:36:00.383Z,17.19
2023-05-25T03:36:50.403Z,17.19
2023-05-25T03:37:40.530Z,17.18
2023-05-25T03:38:30.601Z,17.19
2023-05-25T03:39:20.685Z,17.19
2023-05-25T03:40:10.643Z,17.18
2023-05-25T03:41:00.727Z,17.19
2023-05-25T03:41:50.743Z,17.20
2023-05-25T03:42:40.876Z,17.21
2023-05-25T03:43:30.853Z,17.20
2023-05-25T03:44:21.039Z,17.22
2023-05-25T03:45:10.974Z,17.25
2023-05-25T03:46:01.100Z,17.27
2023-05-25T03:46:51.058Z,17.28
2023-05-25T03:47:41.278Z,17.30
2023-05-25T03:48:31.204Z,17.31
2023-05-25T03:49:21.368Z,17.30
2023-05-25T03:50:11.322Z,17.31
2023-05-25T03:51:01.414Z,17.34
2023-05-25T03:51:51.401Z,17.34
2023-05-25T03:52:41.562Z,17.33
2023-05-25T03:53:31.496Z,17.33
2023-05-25T03:54:21.631Z,17.36
2023-05-25T03:55:11.647Z,17.39
2023-05-25T03:56:01.752Z,17.39
2023-05-25T03:56:51.748Z,17.41
2023-05-25T03:57:41.901Z,17.42
2023-05-25T03:58:31.880Z,17.43
2023-05-25T03:59:22.056Z,17.42
2023-05-25T04:00:12.000Z,17.43
2023-05-25T04:01:04.368Z,17.45
2023-05-25T04:01:52.097Z,17.46
2023-05-25T04:02:42.349Z,17.47
2023-05-25T04:03:32.450Z,17.48
2023-05-25T04:04:22.359Z,17.48
2023-05-25T04:05:12.353Z,17.50
2023-05-25T04:06:02.430Z,17.51
2023-05-25T04:06:52.436Z,17.48
2023-05-25T04:07:42.583Z,17.49
2023-05-25T04:08:32.565Z,17.48
2023-05-25T04:09:22.736Z,17.51
2023-05-25T04:10:12.716Z,17.50
2023-05-25T04:11:02.780Z,17.51
2023-05-25T04:11:52.759Z,17.52
2023-05-25T04:12:42.931Z,17.51
2023-05-25T04:13:32.865Z,17.53
2023-05-25T04:14:22.978Z,17.52
2023-05-25T04:15:13.019Z,17.54
2023-05-25T04:16:03.272Z,17.53
2023-05-25T04:16:53.114Z,17.54
2023-05-25T04:17:43.281Z,17.53
2023-05-25T04:18:33.209Z,17.52
2023-05-25T04:19:23.326Z,17.52
2023-05-25T04:20:13.330Z,17.52
2023-05-25T04:21:03.366Z,17.53
2023-05-25T04:21:53.397Z,17.55
2023-05-25T04:22:43.511Z,17.55
2023-05-25T04:23:33.535Z,17.57
2023-05-25T04:24:23.656Z,17.56
2023-05-25T04:25:13.674Z,17.55
2023-05-25T04:26:03.729Z,17.56
2023-05-25T04:26:53.732Z,17.58
2023-05-25T04:27:43.855Z,17.58
2023-05-25T04:28:33.878Z,17.57
2023-05-25T04:29:24.004Z,17.57
2023-05-25T04:30:14.000Z,17.53
2023-05-25T04:31:04.052Z,17.51
2023-05-25T04:31:54.102Z,17.52
2023-05-25T04:32:45.306Z,17.52
2023-05-25T04:33:34.347Z,17.49
2023-05-25T04:34:24.449Z,17.51
2023-05-25T04:35:14.490Z,17.52
2023-05-25T04:36:04.597Z,17.52
2023-05-25T04:36:54.580Z,17.53
2023-05-25T04:37:44.749Z,17.52
2023-05-25T04:38:34.690Z,17.52
2023-05-25T04:39:24.789Z,17.54
2023-05-25T04:40:14.835Z,17.54
2023-05-25T04:41:04.942Z,17.53
2023-05-25T04:41:54.950Z,17.51
2023-05-25T04:42:45.158Z,17.53
2023-05-25T04:43:35.057Z,17.52
2023-05-25T04:44:25.243Z,17.51
2023-05-25T04:45:15.200Z,17.53
2023-05-25T04:46:05.306Z,17.55
2023-05-25T04:46:55.256Z,17.55
2023-05-25T04:47:45.498Z,17.57
2023-05-25T04:48:35.379Z,17.56
2023-05-25T04:49:25.476Z,17.55
2023-05-25T04:50:15.519Z,17.55
2023-05-25T04:51:05.540Z,17.56
2023-05-25T04:51:55.603Z,17.55
2023-05-25T04:52:45.673Z,17.54
2023-05-25T04:53:35.742Z,17.51
2023-05-25T04:54:25.816Z,17.51
2023-05-25T04:55:15.893Z,17.51
2023-05-25T04:56:05.929Z,17.53
2023-05-25T04:56:55.989Z,17.51
2023-05-25T04:57:46.085Z,17.50
2023-05-25T04:58:36.127Z,17.51
2023-05-25T04:59:26.206Z,17.51
2023-05-25T05:00:16.281Z,17.53
2023-05-25T05:01:06.365Z,17.51
2023-05-25T05:01:56.412Z,17.48
2023-05-25T05:02:46.619Z,17.49
2023-05-25T05:03:36.650Z,17.48
2023-05-25T05:04:26.606Z,17.47
2023-05-25T05:05:16.722Z,17.46
2023-05-25T05:06:06.720Z,17.44
2023-05-25T05:06:58.916Z,17.43
2023-05-25T05:07:46.840Z,17.43
2023-05-25T05:08:36.872Z,17.45
2023-05-25T05:09:26.949Z,17.45
2023-05-25T05:10:17.033Z,17.45
2023-05-25T05:11:07.059Z,17.46
2023-05-25T05:11:57.135Z,17.45
2023-05-25T05:12:47.210Z,17.47
2023-05-25T05:13:37.292Z,17.49
2023-05-25T05:14:27.351Z,17.51
2023-05-25T05:15:17.432Z,17.51
2023-05-25T05:16:07.513Z,17.52
2023-05-25T05:16:57.574Z,17.50
2023-05-25T05:17:47.571Z,17.51
2023-05-25T05:18:37.628Z,17.50
2023-05-25T05:19:27.653Z,17.47
2023-05-25T05:20:17.771Z,17.46
2023-05-25T05:21:07.727Z,17.48
2023-05-25T05:21:57.795Z,17.48
2023-05-25T05:22:47.891Z,17.50
2023-05-25T05:23:37.941Z,17.48
2023-05-25T05:24:28.012Z,17.45
2023-05-25T05:25:18.066Z,17.45
2023-05-25T05:26:08.097Z,17.45
2023-05-25T05:26:59.355Z,17.44
2023-05-25T05:27:48.179Z,17.45
2023-05-25T05:28:38.253Z,17.49
2023-05-25T05:29:28.339Z,17.48
2023-05-25T05:30:18.401Z,17.47
2023-05-25T05:31:08.452Z,17.48
2023-05-25T05:31:58.553Z,17.46
2023-05-25T05:32:48.584Z,17.49
2023-05-25T05:33:38.621Z,17.50
2023-05-25T05:34:28.678Z,17.50
2023-05-25T05:35:18.754Z,17.51
2023-05-25T05:36:09.814Z,17.52
2023-05-25T05:36:59.072Z,17.53
2023-05-25T05:37:48.888Z,17.54
2023-05-25T05:38:40.081Z,17.52
2023-05-25T05:39:28.996Z,17.53
2023-05-25T05:40:19.075Z,17.51
2023-05-25T05:41:09.101Z,17.53
2023-05-25T05:41:59.192Z,17.55
2023-05-25T05:42:49.238Z,17.58
2023-05-25T05:43:39.316Z,17.57
2023-05-25T05:44:29.722Z,17.57
2023-05-25T05:45:19.502Z,17.56
2023-05-25T05:46:09.526Z,17.56
2023-05-25T05:46:59.579Z,17.55
2023-05-25T05:47:49.717Z,17.54
2023-05-25T05:48:39.720Z,17.53
2023-05-25T05:49:29.807Z,17.52
2023-05-25T05:50:19.903Z,17.54
2023-05-25T05:51:09.918Z,17.57
2023-05-25T05:51:59.994Z,17.59
2023-05-25T05:52:50.066Z,17.62
2023-05-25T05:53:40.091Z,17.62
2023-05-25T05:54:30.172Z,17.62
2023-05-25T05:55:20.269Z,17.63
2023-05-25T05:56:10.289Z,17.63
2023-05-25T05:57:00.353Z,17.65
2023-05-25T05:57:50.433Z,17.65
2023-05-25T05:58:40.499Z,17.66
2023-05-25T05:59:30.586Z,17.66
2023-05-25T06:00:20.646Z,17.64
2023-05-25T06:01:10.963Z,17.65
2023-05-25T06:02:00.749Z,17.65
2023-05-25T06:02:50.839Z,17.66
2023-05-25T06:03:40.806Z,17.65
2023-05-25T06:04:30.884Z,17.65
2023-05-25T06:05:21.028Z,17.66
2023-05-25T06:06:11.088Z,17.66
2023-05-25T06:07:01.063Z,17.67
2023-05-25T06:07:51.145Z,17.67
2023-05-25T06:08:41.211Z,17.68
2023-05-25T06:09:31.286Z,17.68
2023-05-25T06:10:21.384Z,17.67
2023-05-25T06:11:11.408Z,17.66
2023-05-25T06:12:01.476Z,17.66
2023-05-25T06:12:51.549Z,17.68
2023-05-25T06:13:41.631Z,17.69
2023-05-25T06:14:31.690Z,17.68
2023-05-25T06:15:21.781Z,17.68
2023-05-25T06:16:11.893Z,17.68
2023-05-25T06:17:02.110Z,17.69
2023-05-25T06:17:51.886Z,17.70
2023-05-25T06:18:41.954Z,17.71
2023-05-25T06:19:32.081Z,17.72
2023-05-25T06:20:22.180Z,17.73
2023-05-25T06:21:13.048Z,17.73
2023-05-25T06:22:02.219Z,17.72
2023-05-25T06:22:52.272Z,17.73
2023-05-25T06:23:42.343Z,17.74
2023-05-25T06:24:32.408Z,17.74
2023-05-25T06:25:22.487Z,17.74
2023-05-25T06:26:12.535Z,17.76
2023-05-25T06:27:02.598Z,17.76
2023-05-25T06:27:52.672Z,17.77
2023-05-25T06:28:42.753Z,17.76
2023-05-25T06:29:32.820Z,17.75
2023-05-25T06:30:22.904Z,17.75
2023-05-25T06:31:12.953Z,17.74
2023-05-25T06:32:03.084Z,17.75
2023-05-25T06:32:53.122Z,17.75
2023-05-25T06:33:43.079Z,17.76
2023-05-25T06:34:33.154Z,17.77
2023-05-25T06:35:23.224Z,17.77
2023-05-25T06:36:13.251Z,17.78
2023-05-25T06:37:03.324Z,17.76
2023-05-25T06:37:53.374Z,17.77
2023-05-25T06:38:43.439Z,17.78
2023-05-25T06:39:33.503Z,17.79
2023-05-25T06:40:23.590Z,17.78
2023-05-25T06:41:13.627Z,17.79
2023-05-25T06:42:03.650Z,17.79
2023-05-25T06:42:53.730Z,17.79
2023-05-25T06:43:43.757Z,17.80
2023-05-25T06:44:33.833Z,17.80
2023-05-25T06:45:23.914Z,17.80
2023-05-25T06:46:13.967Z,17.80
2023-05-25T06:47:04.011Z,17.81
2023-05-25T06:47:54.114Z,17.81
2023-05-25T06:48:44.137Z,17.81
2023-05-25T06:49:34.210Z,17.81
2023-05-25T06:50:24.283Z,17.80
2023-05-25T06:51:14.300Z,17.82
2023-05-25T06:52:04.361Z,17.82
2023-05-25T06:52:54.426Z,17.82
2023-05-25T06:53:44.530Z,17.81
2023-05-25T06:54:34.537Z,17.79
2023-05-25T06:55:24.624Z,17.77
2023-05-25T06:56:14.667Z,17.79
2023-05-25T06:57:04.686Z,17.80
2023-05-25T06:57:54.766Z,17.79
2023-05-25T06:58:44.834Z,17.80
2023-05-25T06:59:34.907Z,17.81
2023-05-25T07:00:24.982Z,17.82
2023-05-25T07:01:15.026Z,17.79
2023-05-25T07:02:05.082Z,17.77
2023-05-25T07:02:55.202Z,17.75
2023-05-25T07:03:45.201Z,17.75
2023-05-25T07:04:35.326Z,17.76
2023-05-25T07:05:25.374Z,17.76
2023-05-25T07:06:15.381Z,17.77
2023-05-25T07:07:05.439Z,17.80
2023-05-25T07:07:55.511Z,17.81
2023-05-25T07:08:45.580Z,17.82
2023-05-25T07:09:35.647Z,17.82
2023-05-25T07:10:25.797Z,17.80
2023-05-25T07:11:15.769Z,17.79
2023-05-25T07:12:05.840Z,17.76
2023-05-25T07:12:55.929Z,17.76
2023-05-25T07:13:45.947Z,17.74
2023-05-25T07:14:36.033Z,17.75
2023-05-25T07:15:26.109Z,17.75
2023-05-25T07:16:16.211Z,17.78
2023-05-25T07:17:06.184Z,17.77
2023-05-25T07:17:56.251Z,17.79
2023-05-25T07:18:46.286Z,17.79
2023-05-25T07:19:36.363Z,17.77
2023-05-25T07:20:26.655Z,17.78
2023-05-25T07:21:16.493Z,17.76
2023-05-25T07:22:06.565Z,17.75
2023-05-25T07:22:56.622Z,17.77
2023-05-25T07:23:46.686Z,17.77
2023-05-25T07:24:36.753Z,17.76
2023-05-25T07:25:26.841Z,17.79
2023-05-25T07:26:16.891Z,17.77
2023-05-25T07:27:06.911Z,17.76
2023-05-25T07:27:56.980Z,17.77
2023-05-25T07:28:47.051Z,17.80
2023-05-25T07:29:37.124Z,17.80
2023-05-25T07:30:27.207Z,17.80
2023-05-25T07:31:17.257Z,17.80
2023-05-25T07:32:07.303Z,17.82
2023-05-25T07:32:57.410Z,17.83
2023-05-25T07:33:47.403Z,17.81
2023-05-25T07:34:37.483Z,17.82
2023-05-25T07:35:27.555Z,17.81
2023-05-25T07:36:17.619Z,17.79
2023-05-25T07:37:07.659Z,17.78
2023-05-25T07:37:57.725Z,17.80
2023-05-25T07:38:47.732Z,17.80
2023-05-25T07:39:37.806Z,17.80
2023-05-25T07:40:27.895Z,17.79
2023-05-25T07:41:17.933Z,17.78
2023-05-25T07:42:07.997Z,17.79
2023-05-25T07:42:58.076Z,17.79
2023-05-25T07:43:48.114Z,17.78
2023-05-25T07:44:38.195Z,17.76
2023-05-25T07:45:28.237Z,17.74
2023-05-25T07:46:18.272Z,17.70
2023-05-25T07:47:08.402Z,17.70
2023-05-25T07:47:58.445Z,17.69
2023-05-25T07:48:48.436Z,17.68
2023-05-25T07:49:38.507Z,17.68
2023-05-25T07:50:31.036Z,17.69
2023-05-25T07:51:18.634Z,17.71
2023-05-25T07:52:08.716Z,17.72
2023-05-25T07:52:58.769Z,17.72
2023-05-25T07:53:48.792Z,17.73
2023-05-25T07:54:38.952Z,17.73
2023-05-25T07:55:28.920Z,17.76
2023-05-25T07:56:18.951Z,17.78
2023-05-25T07:57:09.054Z,17.80
2023-05-25T07:57:59.089Z,17.79
2023-05-25T07:58:49.159Z,17.79
2023-05-25T07:59:39.229Z,17.79
2023-05-25T08:00:29.287Z,17.79
2023-05-25T08:01:19.345Z,17.75
2023-05-25T08:02:09.455Z,17.75
2023-05-25T08:02:59.650Z,17.74
2023-05-25T08:03:50.395Z,17.71
2023-05-25T08:04:39.696Z,17.68
2023-05-25T08:05:29.622Z,17.68
2023-05-25T08:06:19.678Z,17.68
2023-05-25T08:07:09.739Z,17.67
2023-05-25T08:07:59.965Z,17.67
2023-05-25T08:08:49.853Z,17.66
2023-05-25T08:09:39.918Z,17.68
2023-05-25T08:10:30.002Z,17.67
2023-05-25T08:11:20.040Z,17.66
2023-05-25T08:13:00.174Z,17.66
2023-05-25T08:13:50.414Z,17.68
2023-05-25T08:14:40.470Z,17.67
2023-05-25T08:15:30.549Z,17.65
2023-05-25T08:16:20.659Z,17.66
2023-05-25T08:17:10.641Z,17.66
2023-05-25T08:18:00.724Z,17.66
2023-05-25T08:18:50.727Z,17.65
2023-05-25T08:19:40.800Z,17.67
2023-05-25T08:20:30.954Z,17.70
2023-05-25T08:21:20.924Z,17.72
2023-05-25T08:22:11.016Z,17.71
2023-05-25T08:23:01.067Z,17.71
2023-05-25T08:23:51.159Z,17.71
2023-05-25T08:24:41.184Z,17.71
2023-05-25T08:25:31.250Z,17.71
2023-05-25T08:27:12.396Z,17.71
2023-05-25T08:28:01.461Z,17.70
2023-05-25T08:28:51.526Z,17.69
2023-05-25T08:29:41.575Z,17.71
2023-05-25T08:30:31.659Z,17.72
2023-05-25T08:31:21.757Z,17.74
2023-05-25T08:32:11.753Z,17.76
2023-05-25T08:33:01.884Z,17.76
2023-05-25T08:33:51.870Z,17.76
2023-05-25T08:34:41.942Z,17.78
2023-05-25T08:35:32.018Z,17.79
2023-05-25T08:36:22.048Z,17.80
2023-05-25T08:37:12.094Z,17.79
2023-05-25T08:38:02.124Z,17.79
2023-05-25T08:38:52.179Z,17.75
2023-05-25T08:39:42.277Z,17.77
2023-05-25T08:40:32.311Z,17.78
2023-05-25T08:41:22.346Z,17.78
2023-05-25T08:42:12.420Z,17.78
2023-05-25T08:43:02.461Z,17.79
2023-05-25T08:43:52.520Z,17.81
2023-05-25T08:44:42.586Z,17.82
2023-05-25T08:45:34.948Z,17.83
2023-05-25T08:46:22.662Z,17.81
2023-05-25T08:47:12.720Z,17.83
2023-05-25T08:48:02.990Z,17.84
2023-05-25T08:48:52.924Z,17.84
2023-05-25T08:49:43.537Z,17.86
2023-05-25T08:50:32.940Z,17.86
2023-05-25T08:51:23.938Z,17.86
2023-05-25T08:52:13.034Z,17.86
2023-05-25T08:53:03.109Z,17.87
2023-05-25T08:53:53.180Z,17.88
2023-05-25T08:54:43.266Z,17.88
2023-05-25T08:55:33.329Z,17.88
2023-05-25T08:56:23.340Z,17.89
2023-05-25T08:57:13.366Z,17.90
2023-05-25T08:58:03.441Z,17.89
2023-05-25T08:58:53.509Z,17.89
2023-05-25T08:59:43.582Z,17.88
2023-05-25T09:00:33.660Z,17.87
2023-05-25T09:01:23.756Z,17.86
2023-05-25T09:02:13.807Z,17.88
2023-05-25T09:03:03.897Z,17.87
2023-05-25T09:03:53.899Z,17.84
2023-05-25T09:04:43.915Z,17.84
2023-05-25T09:05:36.764Z,17.85
2023-05-25T09:06:23.989Z,17.85
2023-05-25T09:07:14.062Z,17.86
2023-05-25T09:08:04.115Z,17.87
2023-05-25T09:08:54.194Z,17.86
2023-05-25T09:09:44.266Z,17.86
2023-05-25T09:10:34.322Z,17.85
2023-05-25T09:11:37.461Z,17.84
2023-05-25T09:12:15.389Z,17.83
2023-05-25T09:13:19.714Z,17.82
2023-05-25T09:13:55.521Z,17.80
2023-05-25T09:14:44.591Z,17.82
2023-05-25T09:15:34.669Z,17.84
2023-05-25T09:16:24.788Z,17.86
2023-05-25T09:17:14.785Z,17.86
2023-05-25T09:18:05.367Z,17.87
2023-05-25T09:18:54.912Z,17.86
2023-05-25T09:19:45.016Z,17.85
2023-05-25T09:20:35.169Z,17.85
2023-05-25T09:21:25.090Z,17.84
2023-05-25T09:22:16.984Z,17.85
2023-05-25T09:23:05.213Z,17.84
2023-05-25T09:23:55.272Z,17.85
2023-05-25T09:24:45.674Z,17.85
2023-05-25T09:25:35.384Z,17.85
2023-05-25T09:26:25.416Z,17.84
2023-05-25T09:27:15.496Z,17.83
2023-05-25T09:28:24.711Z,17.85
2023-05-25T09:28:56.606Z,17.83
2023-05-25T09:29:45.671Z,17.85
2023-05-25T09:30:35.751Z,17.87
2023-05-25T09:31:25.911Z,17.87
2023-05-25T09:32:15.950Z,17.87
2023-05-25T09:33:05.911Z,17.87
2023-05-25T09:33:55.952Z,17.89
2023-05-25T09:34:46.018Z,17.89
2023-05-25T09:35:36.109Z,17.90
2023-05-25T09:36:26.230Z,17.90
2023-05-25T09:37:16.446Z,17.91
2023-05-25T09:38:06.388Z,17.91
2023-05-25T09:38:56.606Z,17.91
2023-05-25T09:39:46.605Z,17.91
2023-05-25T09:40:36.472Z,17.92
2023-05-25T09:41:26.512Z,17.92
2023-05-25T09:42:16.577Z,17.92
2023-05-25T09:43:06.611Z,17.92
2023-05-25T09:44:06.483Z,17.92
2023-05-25T09:44:47.702Z,17.91
2023-05-25T09:45:38.301Z,17.91
2023-05-25T09:46:26.817Z,17.92
2023-05-25T09:47:16.976Z,17.92
2023-05-25T09:48:06.937Z,17.92
2023-05-25T09:48:56.983Z,17.93
2023-05-25T09:49:47.009Z,17.92
2023-05-25T09:50:37.105Z,17.93
2023-05-25T09:51:27.148Z,17.93
2023-05-25T09:52:17.208Z,17.92
2023-05-25T09:53:07.284Z,17.93
2023-05-25T09:53:57.346Z,17.94
2023-05-25T09:54:47.435Z,17.93
2023-05-25T09:55:52.295Z,17.94
2023-05-25T09:56:28.526Z,17.92
2023-05-25T09:57:17.628Z,17.92
2023-05-25T09:58:07.657Z,17.93
2023-05-25T09:58:57.729Z,17.93
2023-05-25T09:59:47.787Z,17.95
2023-05-25T10:00:37.851Z,17.94
2023-05-25T10:01:27.892Z,17.94
2023-05-25T10:02:17.964Z,17.95
2023-05-25T10:03:08.136Z,17.94
2023-05-25T10:04:04.243Z,17.94
2023-05-25T10:04:49.208Z,17.93
2023-05-25T10:05:38.185Z,17.93
2023-05-25T10:06:28.206Z,17.93
2023-05-25T10:07:18.253Z,17.94
2023-05-25T10:08:08.333Z,17.94
2023-05-25T10:08:58.357Z,17.94
2023-05-25T10:09:48.426Z,17.95
2023-05-25T10:10:38.519Z,17.95
2023-05-25T10:11:28.533Z,17.95
2023-05-25T10:12:18.607Z,17.95
2023-05-25T10:13:08.678Z,17.94
2023-05-25T10:13:58.760Z,17.94
2023-05-25T10:14:48.845Z,17.96
2023-05-25T10:15:38.943Z,17.96
2023-05-25T10:16:28.969Z,17.96
2023-05-25T10:17:19.067Z,17.95
2023-05-25T10:18:09.110Z,17.96
2023-05-25T10:18:59.132Z,17.96
2023-05-25T10:19:49.196Z,17.95
2023-05-25T10:20:39.333Z,17.95
2023-05-25T10:21:29.308Z,17.96
2023-05-25T10:22:19.381Z,17.95
2023-05-25T10:23:09.442Z,17.95
2023-05-25T10:23:59.518Z,17.95
2023-05-25T10:24:49.543Z,17.95
2023-05-25T10:25:39.641Z,17.96
2023-05-25T10:26:29.664Z,17.95
2023-05-25T10:28:10.803Z,17.94
2023-05-25T10:28:59.883Z,17.94
2023-05-25T10:29:49.940Z,17.95
2023-05-25T10:30:40.047Z,17.95
2023-05-25T10:31:30.306Z,17.95
2023-05-25T10:32:20.098Z,17.95
2023-05-25T10:33:10.245Z,17.96
2023-05-25T10:34:00.246Z,17.96
2023-05-25T10:34:50.278Z,17.96
2023-05-25T10:35:56.289Z,17.95
2023-05-25T10:36:31.398Z,17.95
2023-05-25T10:37:20.481Z,17.94
2023-05-25T10:38:10.536Z,17.95
2023-05-25T10:39:00.600Z,17.95
2023-05-25T10:39:50.678Z,17.96
2023-05-25T10:40:40.756Z,17.96
2023-05-25T10:41:30.765Z,17.95
2023-05-25T10:42:20.833Z,17.96
2023-05-25T10:43:10.869Z,17.97
2023-05-25T10:44:00.938Z,17.97
2023-05-25T10:44:50.971Z,17.97
2023-05-25T10:45:41.064Z,17.96
2023-05-25T10:46:31.137Z,17.96
2023-05-25T10:47:21.219Z,17.97